Time;durP1;ratioP1;P1;durP2;ratioP2;P2;SDS_P1;SDS_P2;PMS_P1;PMS_P2;Temp;Humidity;BMP_temperature;BMP_pressure;BME280_temperature;BME280_humidity;BME280_pressure;Samples;Min_cycle;Max_cycle;Signal;HPM_P1;HPM_P2
2021/12/12 00:01:12;;;;;;;10.48;6.97;;;0.70;99.90;;;;;;4974937;28;20083;-64
2021/12/12 00:03:46;;;;;;;12.70;7.22;;;0.70;99.90;;;;;;4977315;28;20034;-64
2021/12/12 00:06:19;;;;;;;10.73;6.20;;;0.70;99.90;;;;;;4974332;28;20088;-64
2021/12/12 00:08:49;;;;;;;13.55;6.88;;;0.70;99.90;;;;;;4976505;28;20042;-64
2021/12/12 00:11:18;;;;;;;10.82;7.35;;;0.70;99.90;;;;;;4978461;28;20045;-64
2021/12/12 00:13:56;;;;;;;11.32;6.72;;;0.80;99.90;;;;;;4976468;28;20073;-64
2021/12/12 00:16:22;;;;;;;10.90;6.70;;;0.80;99.90;;;;;;4974875;28;20030;-64
2021/12/12 00:18:48;;;;;;;11.15;6.30;;;0.80;99.90;;;;;;4976599;28;20038;-64
2021/12/12 00:21:16;;;;;;;9.82;6.80;;;0.80;99.90;;;;;;4976128;28;20032;-64
2021/12/12 00:23:42;;;;;;;12.57;6.93;;;0.80;99.90;;;;;;4972564;28;20034;-64
2021/12/12 00:26:08;;;;;;;9.20;6.32;;;0.80;99.90;;;;;;4978830;28;20057;-64
2021/12/12 00:28:34;;;;;;;10.98;6.90;;;0.90;99.90;;;;;;4974028;28;20041;-65
2021/12/12 00:31:08;;;;;;;12.68;7.18;;;0.90;99.90;;;;;;4979343;28;20528;-64
2021/12/12 00:33:35;;;;;;;11.98;6.50;;;0.90;99.90;;;;;;4975417;28;20057;-64
2021/12/12 00:36:01;;;;;;;8.18;5.72;;;0.90;99.90;;;;;;4985313;28;20472;-64
2021/12/12 00:38:31;;;;;;;9.88;6.68;;;0.90;99.90;;;;;;4979006;28;20258;-64
2021/12/12 00:41:02;;;;;;;10.43;6.38;;;1.00;99.90;;;;;;4976149;28;20038;-64
2021/12/12 00:43:33;;;;;;;11.27;6.93;;;0.90;99.90;;;;;;4976820;28;20130;-64
2021/12/12 00:46:02;;;;;;;13.80;6.72;;;0.90;99.90;;;;;;4979697;28;20129;-64
2021/12/12 00:48:30;;;;;;;11.77;7.28;;;1.00;99.90;;;;;;4979290;28;20027;-64
2021/12/12 00:50:58;;;;;;;12.55;7.20;;;0.90;99.90;;;;;;4977788;28;21493;-64
2021/12/12 00:53:25;;;;;;;11.90;6.72;;;0.90;99.90;;;;;;4979593;28;20042;-64
2021/12/12 00:55:53;;;;;;;11.27;7.32;;;0.90;99.90;;;;;;4982044;28;20027;-64
2021/12/12 00:58:20;;;;;;;11.23;7.25;;;0.90;99.90;;;;;;4978958;28;20035;-64
2021/12/12 01:00:52;;;;;;;12.68;8.30;;;0.90;99.90;;;;;;4974292;28;20047;-64
2021/12/12 01:03:23;;;;;;;9.80;5.82;;;0.90;99.90;;;;;;4976976;28;20034;-64
2021/12/12 01:05:51;;;;;;;13.45;8.25;;;0.90;99.90;;;;;;4976249;28;20040;-64
2021/12/12 01:08:17;;;;;;;12.15;7.03;;;0.90;99.90;;;;;;4976870;28;20038;-64
2021/12/12 01:10:49;;;;;;;12.30;6.97;;;0.90;99.90;;;;;;4977304;28;20038;-64
2021/12/12 01:13:16;;;;;;;11.60;5.82;;;0.90;99.90;;;;;;4976026;28;20157;-65
2021/12/12 01:15:53;;;;;;;11.90;6.75;;;0.90;99.90;;;;;;4981180;28;20097;-64
2021/12/12 01:18:29;;;;;;;17.95;7.18;;;1.00;99.90;;;;;;4981237;28;20121;-64
2021/12/12 01:20:58;;;;;;;12.80;7.85;;;1.00;99.90;;;;;;4975704;28;20051;-64
2021/12/12 01:23:35;;;;;;;12.32;7.22;;;1.00;99.90;;;;;;4982451;28;20052;-64
2021/12/12 01:26:04;;;;;;;14.63;7.95;;;1.00;99.90;;;;;;4962955;28;20490;-64
2021/12/12 01:28:32;;;;;;;15.07;8.40;;;1.00;99.90;;;;;;4978622;28;20062;-64
2021/12/12 01:31:02;;;;;;;18.58;10.63;;;1.00;99.90;;;;;;4979697;28;20042;-64
2021/12/12 01:33:35;;;;;;;16.02;9.82;;;1.10;99.90;;;;;;4979933;28;20051;-64
2021/12/12 01:36:06;;;;;;;16.92;12.23;;;1.10;99.90;;;;;;4982290;28;20061;-64
2021/12/12 01:38:52;;;;;;;13.60;9.30;;;1.10;99.90;;;;;;4984313;28;20034;-64
2021/12/12 01:41:40;;;;;;;16.17;8.45;;;1.10;99.90;;;;;;4979463;28;20140;-64
2021/12/12 01:44:19;;;;;;;12.23;8.25;;;1.10;99.90;;;;;;4980100;28;20046;-64
2021/12/12 01:47:01;;;;;;;14.18;7.97;;;1.10;99.90;;;;;;4983286;28;20038;-64
2021/12/12 01:49:30;;;;;;;10.73;6.60;;;1.10;99.90;;;;;;4983897;28;20026;-64
2021/12/12 01:51:57;;;;;;;11.80;7.80;;;1.10;99.90;;;;;;4981043;28;20030;-64
2021/12/12 01:54:29;;;;;;;8.77;6.45;;;1.10;99.90;;;;;;4983224;28;20042;-64
2021/12/12 01:56:59;;;;;;;13.13;7.45;;;1.10;99.90;;;;;;4982446;28;20081;-64
2021/12/12 01:59:30;;;;;;;13.35;7.65;;;1.10;99.90;;;;;;4981434;28;20047;-64
2021/12/12 02:02:07;;;;;;;9.50;5.72;;;1.10;99.90;;;;;;4981214;28;20049;-64
2021/12/12 02:04:37;;;;;;;9.40;5.53;;;1.10;99.90;;;;;;4978993;28;20038;-64
2021/12/12 02:07:06;;;;;;;11.40;6.85;;;1.10;99.90;;;;;;4980173;28;20057;-64
2021/12/12 02:09:33;;;;;;;9.07;6.35;;;1.10;99.90;;;;;;4979339;28;20026;-64
2021/12/12 02:12:00;;;;;;;13.23;7.68;;;1.10;99.90;;;;;;4980880;28;20080;-64
2021/12/12 02:14:29;;;;;;;9.00;6.38;;;1.10;99.90;;;;;;4980133;28;20053;-64
2021/12/12 02:17:10;;;;;;;12.93;7.88;;;1.10;99.90;;;;;;4976047;28;20038;-64
2021/12/12 02:20:03;;;;;;;11.95;6.95;;;1.10;99.90;;;;;;4979274;28;20057;-64
2021/12/12 02:35:54;;;;;;;8.77;6.20;;;1.10;99.90;;;;;;4979358;28;20093;-64
2021/12/12 02:38:28;;;;;;;8.55;6.30;;;1.10;99.90;;;;;;4974424;28;20030;-64
2021/12/12 02:41:06;;;;;;;11.13;6.75;;;1.10;99.90;;;;;;4982916;28;20030;-64
2021/12/12 02:43:38;;;;;;;8.82;7.03;;;1.10;99.90;;;;;;4979838;28;20049;-65
2021/12/12 02:46:04;;;;;;;10.80;6.80;;;1.20;99.90;;;;;;4983551;28;20038;-64
2021/12/12 02:48:35;;;;;;;10.77;6.65;;;1.10;99.90;;;;;;4980367;28;20377;-64
2021/12/12 02:51:05;;;;;;;10.45;5.90;;;1.10;99.90;;;;;;4978891;28;20034;-64
2021/12/12 02:53:36;;;;;;;9.23;4.95;;;1.10;99.90;;;;;;4981221;28;20066;-64
2021/12/12 02:56:10;;;;;;;9.07;6.03;;;1.10;99.90;;;;;;4982191;28;20490;-64
2021/12/12 02:58:37;;;;;;;8.93;6.07;;;1.10;99.90;;;;;;4980681;28;20022;-64
2021/12/12 03:01:29;;;;;;;8.93;5.82;;;1.10;99.90;;;;;;4980252;28;20046;-64
2021/12/12 03:03:55;;;;;;;10.32;6.75;;;1.10;99.90;;;;;;4948523;28;20050;-64
2021/12/12 03:06:26;;;;;;;10.38;6.47;;;1.10;99.90;;;;;;4983037;28;20036;-64
2021/12/12 03:08:59;;;;;;;9.93;6.25;;;1.10;99.90;;;;;;4979968;28;20026;-64
2021/12/12 03:11:27;;;;;;;11.50;6.65;;;1.10;99.90;;;;;;4978357;28;20034;-64
2021/12/12 03:13:56;;;;;;;11.45;6.82;;;1.10;99.90;;;;;;4980116;28;20058;-64
2021/12/12 03:16:22;;;;;;;8.68;6.18;;;1.10;99.90;;;;;;4981881;28;20130;-64
2021/12/12 03:18:48;;;;;;;11.95;7.30;;;1.10;99.90;;;;;;4978905;28;20034;-64
2021/12/12 03:21:19;;;;;;;11.25;6.40;;;1.10;99.90;;;;;;4979391;28;20035;-64
2021/12/12 03:23:52;;;;;;;11.00;6.07;;;1.10;99.90;;;;;;4982824;28;20095;-64
2021/12/12 03:26:19;;;;;;;12.13;6.95;;;1.10;99.90;;;;;;4987238;28;20420;-64
2021/12/12 03:28:47;;;;;;;9.40;6.18;;;1.10;99.90;;;;;;4984689;28;20121;-64
2021/12/12 03:31:21;;;;;;;12.32;7.32;;;1.10;99.90;;;;;;4985324;28;20469;-64
2021/12/12 03:33:47;;;;;;;11.57;6.70;;;1.20;99.90;;;;;;4981323;28;20046;-64
2021/12/12 03:36:16;;;;;;;10.00;6.53;;;1.10;99.90;;;;;;4983981;28;20389;-64
2021/12/12 03:39:01;;;;;;;;;;;1.20;99.90;;;;;;4985467;28;20042;-64
2021/12/12 03:41:33;;;;;;;12.30;7.00;;;1.20;99.90;;;;;;4985507;28;19909;-64
2021/12/12 03:44:04;;;;;;;11.27;6.45;;;1.20;99.90;;;;;;4983823;28;20030;-64
2021/12/12 03:46:30;;;;;;;14.20;6.28;;;1.20;99.90;;;;;;4985663;28;20051;-64
2021/12/12 03:48:56;;;;;;;13.60;6.18;;;1.20;99.90;;;;;;4984762;28;20046;-64
2021/12/12 03:51:25;;;;;;;10.23;6.88;;;1.20;99.90;;;;;;4984363;28;20054;-64
2021/12/12 03:53:51;;;;;;;11.48;7.15;;;1.20;99.90;;;;;;4985133;28;20038;-64
2021/12/12 03:56:17;;;;;;;10.35;6.30;;;1.20;99.90;;;;;;4984485;28;20030;-64
2021/12/12 03:58:45;;;;;;;10.82;6.18;;;1.20;99.90;;;;;;4983551;28;20485;-64
2021/12/12 04:01:15;;;;;;;13.15;7.30;;;1.20;99.90;;;;;;4984892;28;20053;-64
2021/12/12 04:03:42;;;;;;;11.35;7.50;;;1.20;99.90;;;;;;4984578;28;20038;-64
2021/12/12 04:06:12;;;;;;;12.57;7.45;;;1.20;99.90;;;;;;4980960;28;20045;-64
2021/12/12 04:08:41;;;;;;;7.72;5.22;;;1.20;99.90;;;;;;4984563;28;20117;-64
2021/12/12 04:11:17;;;;;;;11.88;6.68;;;1.20;99.90;;;;;;4982579;28;20417;-64
2021/12/12 04:13:46;;;;;;;10.75;6.07;;;1.20;99.90;;;;;;4982880;28;20034;-64
2021/12/12 04:16:12;;;;;;;9.57;6.30;;;1.20;99.90;;;;;;4981741;28;20488;-64
2021/12/12 04:18:38;;;;;;;12.43;7.30;;;1.20;99.90;;;;;;4983482;28;20034;-64
2021/12/12 04:21:04;;;;;;;9.40;5.70;;;1.20;99.90;;;;;;4983473;28;20042;-64
2021/12/12 04:23:30;;;;;;;9.93;6.15;;;1.20;99.90;;;;;;4984969;28;20524;-64
2021/12/12 04:26:32;;;;;;;13.27;6.63;;;1.20;99.90;;;;;;4983739;28;20473;-64
2021/12/12 04:29:00;;;;;;;9.82;5.60;;;1.20;99.90;;;;;;4967713;28;20042;-64
2021/12/12 04:31:26;;;;;;;9.05;5.65;;;1.20;99.90;;;;;;4983696;28;20056;-64
2021/12/12 04:33:53;;;;;;;9.82;5.72;;;1.20;99.90;;;;;;4983589;28;20117;-64
2021/12/12 04:36:28;;;;;;;10.45;5.72;;;1.20;99.90;;;;;;4982207;28;20038;-64
2021/12/12 04:39:07;;;;;;;9.05;5.30;;;1.20;99.90;;;;;;4983441;28;20562;-64
2021/12/12 04:41:33;;;;;;;9.65;6.40;;;1.20;99.90;;;;;;4982791;28;20178;-64
2021/12/12 04:43:59;;;;;;;12.63;5.63;;;1.20;99.90;;;;;;4982295;28;20034;-64
2021/12/12 04:46:36;;;;;;;8.70;5.07;;;1.10;99.90;;;;;;4982973;28;20034;-64
2021/12/12 04:51:58;;;;;;;10.18;5.88;;;1.10;99.90;;;;;;4983476;28;20033;-64
2021/12/12 04:54:38;;;;;;;7.88;4.45;;;1.10;99.90;;;;;;4983897;28;20499;-64
2021/12/12 04:57:12;;;;;;;8.52;5.63;;;1.10;99.90;;;;;;4982911;28;20073;-64
2021/12/12 04:59:45;;;;;;;8.93;5.57;;;1.10;99.90;;;;;;4979626;28;20025;-64
2021/12/12 05:02:29;;;;;;;7.95;5.38;;;1.10;99.90;;;;;;4981428;28;20042;-64
2021/12/12 05:05:22;;;;;;;8.32;5.53;;;1.10;99.90;;;;;;4980911;28;20141;-64
2021/12/12 05:08:12;;;;;;;7.28;4.70;;;1.10;99.90;;;;;;4976556;28;20045;-64
2021/12/12 05:10:54;;;;;;;8.50;5.18;;;1.10;99.90;;;;;;4944909;28;20058;-65
2021/12/12 05:13:35;;;;;;;6.40;5.13;;;1.20;99.90;;;;;;4982964;28;20030;-64
2021/12/12 05:16:18;;;;;;;8.13;4.88;;;1.10;99.90;;;;;;4985730;28;20026;-64
2021/12/12 05:18:50;;;;;;;8.10;4.78;;;1.10;99.90;;;;;;4983351;28;20034;-64
2021/12/12 05:21:27;;;;;;;7.72;5.30;;;1.10;99.90;;;;;;4984514;28;20713;-64
2021/12/12 05:23:57;;;;;;;6.60;5.10;;;1.10;99.90;;;;;;4975733;28;20481;-64
2021/12/12 05:26:29;;;;;;;6.82;4.65;;;1.10;99.90;;;;;;4981879;28;20042;-64
2021/12/12 05:29:17;;;;;;;6.22;4.78;;;1.10;99.90;;;;;;4980867;28;20031;-64
2021/12/12 05:31:47;;;;;;;8.05;5.13;;;1.20;99.90;;;;;;4979564;28;20135;-64
2021/12/12 05:34:17;;;;;;;8.60;5.43;;;1.10;99.90;;;;;;4980633;28;20077;-64
2021/12/12 05:36:45;;;;;;;7.18;4.43;;;1.20;99.90;;;;;;4982780;28;20062;-64
2021/12/12 05:39:11;;;;;;;9.57;6.15;;;1.20;99.90;;;;;;4983106;28;20042;-64
2021/12/12 05:41:37;;;;;;;9.32;5.63;;;1.20;99.90;;;;;;4979802;28;20030;-64
2021/12/12 05:44:05;;;;;;;7.05;4.60;;;1.10;99.90;;;;;;4975124;28;20485;-64
2021/12/12 05:46:30;;;;;;;11.20;5.80;;;1.10;99.90;;;;;;4982582;28;21665;-64
2021/12/12 05:48:59;;;;;;;7.75;4.82;;;1.10;99.90;;;;;;4979011;28;20031;-64
2021/12/12 05:51:25;;;;;;;11.27;5.70;;;1.10;99.90;;;;;;4979845;28;20121;-64
2021/12/12 05:53:54;;;;;;;7.10;5.20;;;1.20;99.90;;;;;;4984431;28;20537;-64
2021/12/12 05:56:29;;;;;;;8.07;5.10;;;1.20;99.90;;;;;;4980521;28;20033;-64
2021/12/12 05:58:57;;;;;;;9.98;6.25;;;1.20;99.90;;;;;;4985339;28;20034;-64
2021/12/12 06:01:23;;;;;;;11.13;5.18;;;1.20;99.90;;;;;;4982074;28;20061;-64
2021/12/12 06:03:50;;;;;;;7.50;4.22;;;1.20;99.90;;;;;;4964853;28;20045;-64
2021/12/12 06:06:24;;;;;;;8.93;5.05;;;1.20;99.90;;;;;;4983753;28;20042;-64
2021/12/12 06:08:50;;;;;;;9.25;5.63;;;1.20;99.90;;;;;;4977496;28;20034;-64
2021/12/12 06:11:21;;;;;;;10.35;5.38;;;1.20;99.90;;;;;;4983780;28;20034;-64
2021/12/12 06:13:47;;;;;;;9.50;5.32;;;1.20;99.90;;;;;;4981506;28;20089;-64
2021/12/12 06:16:21;;;;;;;7.13;5.15;;;1.20;99.90;;;;;;4981492;28;20030;-64
2021/12/12 06:19:15;;;;;;;7.70;4.60;;;1.20;99.90;;;;;;4983825;28;20110;-64
2021/12/12 06:21:41;;;;;;;6.45;4.85;;;1.20;99.90;;;;;;4970694;28;20046;-64
2021/12/12 06:24:08;;;;;;;6.63;4.68;;;1.20;99.90;;;;;;4978428;28;20045;-64
2021/12/12 06:26:36;;;;;;;6.25;4.47;;;1.20;99.90;;;;;;4977137;28;20034;-64
2021/12/12 06:29:02;;;;;;;8.35;4.95;;;1.20;99.90;;;;;;4981717;28;20101;-64
2021/12/12 06:31:28;;;;;;;6.70;4.75;;;1.20;99.90;;;;;;4981246;28;20405;-64
2021/12/12 06:33:55;;;;;;;9.93;6.18;;;1.20;99.90;;;;;;4981224;28;20050;-64
2021/12/12 06:36:21;;;;;;;10.60;5.13;;;1.20;99.90;;;;;;4978359;28;20038;-64
2021/12/12 06:38:51;;;;;;;18.10;4.75;;;1.20;99.90;;;;;;4982692;28;20042;-64
2021/12/12 06:41:18;;;;;;;10.20;5.78;;;1.20;99.90;;;;;;4983051;28;20084;-64
2021/12/12 06:43:45;;;;;;;7.65;4.82;;;1.20;99.90;;;;;;4976948;28;20122;-64
2021/12/12 06:46:11;;;;;;;9.02;4.72;;;1.30;99.90;;;;;;4982514;28;20038;-64
2021/12/12 06:48:42;;;;;;;7.38;4.78;;;1.20;99.90;;;;;;4981050;28;20030;-64
2021/12/12 06:51:09;;;;;;;8.52;5.43;;;1.20;99.90;;;;;;4980398;28;20030;-64
2021/12/12 06:53:39;;;;;;;10.27;5.13;;;1.20;99.90;;;;;;4983241;28;20045;-64
2021/12/12 06:56:05;;;;;;;11.70;6.40;;;1.20;99.90;;;;;;4980563;28;20069;-64
2021/12/12 06:58:33;;;;;;;11.10;4.20;;;1.20;99.90;;;;;;4980694;28;20092;-64
2021/12/12 07:01:09;;;;;;;10.35;5.75;;;1.20;99.90;;;;;;4980510;28;20046;-64
2021/12/12 07:03:37;;;;;;;6.45;4.88;;;1.20;99.90;;;;;;4978336;28;20500;-64
2021/12/12 07:06:03;;;;;;;9.75;5.82;;;1.20;99.90;;;;;;4975384;28;20682;-64
2021/12/12 07:08:29;;;;;;;7.18;5.07;;;1.20;99.90;;;;;;4980971;28;20034;-64
2021/12/12 07:10:55;;;;;;;7.82;5.70;;;1.20;99.90;;;;;;4980946;28;20654;-64
2021/12/12 07:13:23;;;;;;;10.50;6.63;;;1.20;99.90;;;;;;4980786;28;20045;-64
2021/12/12 07:15:52;;;;;;;10.13;5.72;;;1.30;99.90;;;;;;4981921;28;20042;-64
2021/12/12 07:18:20;;;;;;;8.07;4.65;;;1.30;99.90;;;;;;4978660;28;20027;-64
2021/12/12 07:20:52;;;;;;;11.48;6.78;;;1.30;99.90;;;;;;4978557;28;20081;-64
2021/12/12 07:23:19;;;;;;;8.35;4.63;;;1.30;99.90;;;;;;4980470;28;21283;-64
2021/12/12 07:25:46;;;;;;;9.93;5.40;;;1.30;99.90;;;;;;4977828;28;20046;-64
2021/12/12 07:28:13;;;;;;;7.72;5.07;;;1.20;99.90;;;;;;4980019;28;20030;-64
2021/12/12 07:30:39;;;;;;;6.97;4.72;;;1.30;99.90;;;;;;4979836;28;20058;-64
2021/12/12 07:33:05;;;;;;;12.65;8.20;;;1.30;99.90;;;;;;4980342;28;20491;-64
2021/12/12 07:35:34;;;;;;;11.75;6.88;;;1.30;99.90;;;;;;4982564;28;20034;-64
2021/12/12 07:38:00;;;;;;;8.75;6.72;;;1.40;99.90;;;;;;4976071;28;20073;-64
2021/12/12 07:40:27;;;;;;;51.10;34.72;;;1.30;99.90;;;;;;4981901;28;20031;-64
2021/12/12 07:42:53;;;;;;;24.77;16.00;;;1.30;99.90;;;;;;4983337;28;20038;-64
2021/12/12 07:45:20;;;;;;;8.98;5.07;;;1.30;99.90;;;;;;4964127;28;20042;-64
2021/12/12 07:47:47;;;;;;;10.52;5.93;;;1.30;99.90;;;;;;4982981;28;20023;-64
2021/12/12 07:50:15;;;;;;;8.32;5.57;;;1.30;99.90;;;;;;4979857;28;20148;-64
2021/12/12 07:52:42;;;;;;;10.87;5.53;;;1.30;99.90;;;;;;4979656;28;20034;-64
2021/12/12 07:55:09;;;;;;;8.95;4.82;;;1.30;99.90;;;;;;4964624;28;20034;-64
2021/12/12 07:57:35;;;;;;;9.77;5.30;;;1.40;99.90;;;;;;4980539;28;20037;-64
2021/12/12 08:00:02;;;;;;;5.97;4.43;;;1.40;99.90;;;;;;4980401;28;20133;-64
2021/12/12 08:02:28;;;;;;;8.88;5.15;;;1.40;99.90;;;;;;4981990;28;20046;-64
2021/12/12 08:04:54;;;;;;;8.57;5.60;;;1.40;99.90;;;;;;4981757;28;20551;-64
2021/12/12 08:07:22;;;;;;;8.00;4.28;;;1.40;99.90;;;;;;4981681;28;20023;-65
2021/12/12 08:09:48;;;;;;;10.30;4.80;;;1.40;99.90;;;;;;4978981;28;20034;-64
2021/12/12 08:12:17;;;;;;;6.47;4.28;;;1.40;99.90;;;;;;4986020;28;20034;-64
2021/12/12 08:14:43;;;;;;;;;;;1.40;99.90;;;;;;4985807;28;20076;-64
2021/12/12 08:17:12;;;;;;;5.40;3.60;;;1.40;99.90;;;;;;4984460;28;20945;-64
2021/12/12 08:19:39;;;;;;;8.52;4.05;;;1.40;99.90;;;;;;4985937;28;20030;-64
2021/12/12 08:22:08;;;;;;;7.40;4.68;;;1.40;99.90;;;;;;4982159;28;20030;-64
2021/12/12 08:24:37;;;;;;;8.25;4.55;;;1.40;99.90;;;;;;4985351;28;20034;-65
2021/12/12 08:27:04;;;;;;;4.47;3.65;;;1.40;99.90;;;;;;4980259;28;20031;-64
2021/12/12 08:29:31;;;;;;;7.68;4.53;;;1.40;99.90;;;;;;4983642;28;20766;-64
2021/12/12 08:31:58;;;;;;;5.85;4.22;;;1.40;99.90;;;;;;4981732;28;20038;-64
2021/12/12 08:34:26;;;;;;;6.43;4.70;;;1.40;99.90;;;;;;4981876;28;20063;-64
2021/12/12 08:36:54;;;;;;;7.22;4.82;;;1.40;99.90;;;;;;4978078;28;20030;-65
2021/12/12 08:39:20;;;;;;;7.25;4.50;;;1.40;99.90;;;;;;4977584;28;20042;-64
2021/12/12 08:41:48;;;;;;;5.75;4.40;;;1.40;99.90;;;;;;4976871;28;20366;-64
2021/12/12 08:44:16;;;;;;;7.93;4.85;;;1.50;99.90;;;;;;4977468;28;20513;-64
2021/12/12 08:46:47;;;;;;;7.10;4.45;;;1.40;99.90;;;;;;4978526;28;20057;-64
2021/12/12 08:49:15;;;;;;;6.55;4.40;;;1.40;99.90;;;;;;4974706;28;20034;-64
2021/12/12 08:52:13;;;;;;;5.97;4.50;;;1.50;99.90;;;;;;4977798;28;20034;-64
2021/12/12 08:54:42;;;;;;;11.27;4.57;;;1.50;99.90;;;;;;4962266;28;20220;-64
2021/12/12 08:57:20;;;;;;;6.78;3.78;;;1.50;99.90;;;;;;4955722;28;20062;-64
2021/12/12 08:59:48;;;;;;;4.65;3.47;;;1.40;99.90;;;;;;4966021;28;20030;-64
2021/12/12 09:02:18;;;;;;;6.00;3.78;;;1.50;99.90;;;;;;4982691;28;20046;-64
2021/12/12 09:04:55;;;;;;;6.65;3.90;;;1.50;99.90;;;;;;4982047;28;20444;-64
2021/12/12 09:07:38;;;;;;;5.30;4.60;;;1.50;99.90;;;;;;4978444;28;20125;-64
2021/12/12 09:10:18;;;;;;;6.00;4.18;;;1.50;99.90;;;;;;4980836;28;20577;-64
2021/12/12 09:12:50;;;;;;;5.43;3.75;;;1.50;99.90;;;;;;4976350;28;20038;-63
2021/12/12 09:15:42;;;;;;;7.10;4.32;;;1.50;99.90;;;;;;4976302;28;20035;-63
2021/12/12 09:18:17;;;;;;;4.40;3.20;;;1.50;99.90;;;;;;4982066;28;20057;-63
2021/12/12 09:21:10;;;;;;;5.57;3.58;;;1.50;99.90;;;;;;4987699;28;20045;-63
2021/12/12 09:23:49;;;;;;;7.15;3.67;;;1.50;99.90;;;;;;4982158;28;20389;-63
2021/12/12 09:26:23;;;;;;;3.53;3.17;;;1.50;99.90;;;;;;4980517;28;22933;-63
2021/12/12 09:29:06;;;;;;;7.60;4.47;;;1.50;99.90;;;;;;4981092;28;20054;-63
2021/12/12 09:31:42;;;;;;;5.28;3.42;;;1.50;99.90;;;;;;4974042;28;21006;-63
2021/12/12 09:34:14;;;;;;;7.63;4.15;;;1.50;99.90;;;;;;4978215;28;20061;-63
2021/12/12 09:36:44;;;;;;;7.63;4.25;;;1.50;99.90;;;;;;4981528;28;20081;-63
2021/12/12 09:39:19;;;;;;;6.72;3.42;;;1.50;99.90;;;;;;4978614;28;20038;-63
2021/12/12 09:42:03;;;;;;;9.80;4.68;;;1.50;99.90;;;;;;4980746;28;20125;-63
2021/12/12 09:44:54;;;;;;;5.93;3.72;;;1.50;99.90;;;;;;4981787;28;20034;-63
2021/12/12 09:47:59;;;;;;;5.13;3.88;;;1.50;99.90;;;;;;4976946;28;20061;-63
2021/12/12 09:53:44;;;;;;;7.85;4.85;;;1.60;99.90;;;;;;4983839;28;20412;-63
2021/12/12 09:56:25;;;;;;;6.45;4.65;;;1.60;99.90;;;;;;4948677;28;20042;-64
2021/12/12 09:59:28;;;;;;;4.85;3.42;;;1.60;99.90;;;;;;4980114;28;20027;-63
2021/12/12 10:02:22;;;;;;;7.70;4.25;;;1.60;99.90;;;;;;4979322;28;20049;-63
2021/12/12 10:05:25;;;;;;;6.75;4.30;;;1.60;99.90;;;;;;4976178;28;20035;-63
2021/12/12 10:08:06;;;;;;;7.38;4.35;;;1.60;99.90;;;;;;4976322;28;20042;-63
2021/12/12 10:10:55;;;;;;;7.20;4.63;;;1.60;99.90;;;;;;4976579;28;20050;-63
2021/12/12 10:13:50;;;;;;;10.18;5.03;;;1.60;99.90;;;;;;4978555;28;20539;-63
2021/12/12 10:16:32;;;;;;;9.48;4.93;;;1.60;99.90;;;;;;4981663;28;20045;-63
2021/12/12 10:19:08;;;;;;;5.68;3.83;;;1.60;99.90;;;;;;4979592;28;20117;-63
2021/12/12 10:22:15;;;;;;;7.95;4.40;;;1.60;99.90;;;;;;4971766;28;20045;-63
2021/12/12 10:24:48;;;;;;;7.20;4.75;;;1.70;99.90;;;;;;4972603;28;20046;-63
2021/12/12 10:27:28;;;;;;;6.70;4.13;;;1.70;99.90;;;;;;4981423;28;20121;-63
2021/12/12 10:30:21;;;;;;;8.10;4.13;;;1.70;99.90;;;;;;4969019;28;20041;-63
2021/12/12 10:32:49;;;;;;;7.95;5.20;;;1.80;99.90;;;;;;4962609;28;20062;-63
2021/12/12 10:35:41;;;;;;;5.53;4.65;;;1.80;99.90;;;;;;4963053;28;21355;-63
2021/12/12 10:38:18;;;;;;;7.55;4.78;;;1.90;99.90;;;;;;4952382;28;20039;-64
2021/12/12 10:40:54;;;;;;;7.32;3.63;;;1.90;99.90;;;;;;4959998;28;20034;-63
2021/12/12 10:43:26;;;;;;;5.15;3.60;;;2.00;99.90;;;;;;4961602;28;20062;-64
2021/12/12 10:46:07;;;;;;;9.65;5.15;;;2.00;99.90;;;;;;4962424;28;20655;-64
2021/12/12 10:48:55;;;;;;;5.97;3.85;;;2.00;99.90;;;;;;4961137;28;20031;-64
2021/12/12 10:51:22;;;;;;;7.63;4.70;;;2.00;99.90;;;;;;4962845;28;20031;-63
2021/12/12 10:54:05;;;;;;;8.05;4.78;;;2.10;99.90;;;;;;4965628;28;20369;-63
2021/12/12 10:56:52;;;;;;;7.00;4.18;;;2.10;99.90;;;;;;4959324;28;20055;-64
2021/12/12 10:59:26;;;;;;;8.32;4.35;;;2.20;99.90;;;;;;4960957;28;20073;-64
2021/12/12 11:02:01;;;;;;;6.57;4.03;;;2.30;99.90;;;;;;4959869;28;20134;-64
2021/12/12 11:04:51;;;;;;;7.45;5.07;;;2.30;99.90;;;;;;4965072;28;20425;-64
2021/12/12 11:07:24;;;;;;;6.28;3.67;;;2.30;99.90;;;;;;4962788;28;20146;-65
2021/12/12 11:10:17;;;;;;;5.57;3.75;;;2.40;99.90;;;;;;4954467;28;20054;-65
2021/12/12 11:12:49;;;;;;;7.57;4.03;;;2.40;99.90;;;;;;4965909;28;20530;-64
2021/12/12 11:15:23;;;;;;;7.05;4.13;;;2.40;99.90;;;;;;4965187;28;20085;-64
2021/12/12 11:18:06;;;;;;;4.70;3.90;;;2.40;99.90;;;;;;4961297;28;20073;-64
2021/12/12 11:20:42;;;;;;;7.00;4.70;;;2.50;99.90;;;;;;4959417;28;20038;-64
2021/12/12 11:23:21;;;;;;;6.70;4.90;;;2.50;99.90;;;;;;4961074;28;20051;-64
2021/12/12 11:26:00;;;;;;;8.45;4.45;;;2.50;99.90;;;;;;4958984;28;20039;-64
2021/12/12 11:28:43;;;;;;;7.38;4.28;;;2.50;99.90;;;;;;4961449;28;20473;-64
2021/12/12 11:31:21;;;;;;;7.65;4.60;;;2.60;99.90;;;;;;4950468;28;20066;-64
2021/12/12 11:33:51;;;;;;;9.32;5.00;;;2.60;99.90;;;;;;4920794;28;20145;-64
2021/12/12 11:36:24;;;;;;;6.95;4.05;;;2.60;99.90;;;;;;4934988;28;20027;-64
2021/12/12 11:39:38;;;;;;;6.90;5.00;;;2.60;99.90;;;;;;4934505;28;20023;-64
2021/12/12 11:42:11;;;;;;;7.88;5.13;;;2.70;99.90;;;;;;4916932;28;20051;-64
2021/12/12 11:45:08;;;;;;;7.53;5.00;;;2.70;99.90;;;;;;4936150;28;20126;-64
2021/12/12 11:47:53;;;;;;;10.27;4.80;;;2.70;99.90;;;;;;4942473;28;20086;-64
2021/12/12 11:50:46;;;;;;;7.20;4.82;;;2.70;99.90;;;;;;4937581;28;20035;-64
2021/12/12 11:53:30;;;;;;;9.77;5.60;;;2.80;99.90;;;;;;4936694;28;20062;-64
2021/12/12 11:56:01;;;;;;;8.40;4.88;;;2.80;99.90;;;;;;4940292;28;20023;-64
2021/12/12 11:58:33;;;;;;;9.90;5.85;;;2.80;99.90;;;;;;4935968;28;20402;-64
2021/12/12 12:01:18;;;;;;;7.88;4.60;;;2.80;99.90;;;;;;4941085;28;20410;-64
2021/12/12 12:04:01;;;;;;;9.50;5.85;;;2.80;99.90;;;;;;4936106;28;20049;-64
2021/12/12 12:06:58;;;;;;;9.80;5.53;;;2.90;99.90;;;;;;4938176;28;20023;-64
2021/12/12 12:09:48;;;;;;;8.02;4.13;;;2.90;99.90;;;;;;4938037;28;20046;-65
2021/12/12 12:12:35;;;;;;;7.88;4.97;;;2.90;99.90;;;;;;4938614;28;20182;-65
2021/12/12 12:15:18;;;;;;;9.35;5.40;;;3.00;99.90;;;;;;4935462;28;20698;-64
2021/12/12 12:18:04;;;;;;;9.23;5.22;;;3.00;99.90;;;;;;4938056;28;20035;-64
2021/12/12 12:20:40;;;;;;;8.90;4.65;;;2.90;99.90;;;;;;4938293;28;21711;-64
2021/12/12 12:23:06;;;;;;;9.73;5.68;;;2.90;99.90;;;;;;4938933;28;20044;-64
2021/12/12 12:28:42;;;;;;;9.80;6.65;;;3.00;99.90;;;;;;4937768;28;20075;-64
2021/12/12 12:31:37;;;;;;;11.90;7.30;;;3.00;99.90;;;;;;4939629;28;20066;-64
2021/12/12 12:34:49;;;;;;;19.80;10.70;;;3.00;99.90;;;;;;4955527;28;20046;-64
2021/12/12 12:37:52;;;;;;;18.08;9.52;;;3.10;99.90;;;;;;4962614;28;20462;-64
2021/12/12 12:40:55;;;;;;;9.15;6.97;;;3.10;99.90;;;;;;4959761;28;20502;-64
2021/12/12 12:43:59;;;;;;;10.32;5.93;;;3.10;99.90;;;;;;4959524;28;20840;-64
2021/12/12 12:47:09;;;;;;;10.85;7.43;;;3.10;99.90;;;;;;4958378;28;20043;-64
2021/12/12 12:50:12;;;;;;;12.60;7.55;;;3.10;99.90;;;;;;4932250;28;20549;-64
2021/12/12 12:52:56;;;;;;;46.42;15.48;;;3.10;99.90;;;;;;4961883;28;20062;-65
2021/12/12 12:55:33;;;;;;;36.38;11.48;;;3.20;99.90;;;;;;4960329;28;20038;-64
2021/12/12 12:58:23;;;;;;;19.08;8.38;;;3.20;99.90;;;;;;4954542;28;20085;-64
2021/12/12 13:01:02;;;;;;;12.07;6.40;;;3.20;99.90;;;;;;4956164;28;22643;-64
2021/12/12 13:03:49;;;;;;;17.27;7.90;;;3.20;99.90;;;;;;4955670;28;20504;-64
2021/12/12 13:06:47;;;;;;;16.45;7.72;;;3.30;99.90;;;;;;4956388;28;20031;-64
2021/12/12 13:09:50;;;;;;;12.98;6.90;;;3.20;99.90;;;;;;4957671;28;20039;-64
2021/12/12 13:12:29;;;;;;;8.63;5.32;;;3.30;99.90;;;;;;4938575;28;20043;-64
2021/12/12 13:15:08;;;;;;;11.18;6.28;;;3.30;99.90;;;;;;4956426;28;20132;-65
2021/12/12 13:17:53;;;;;;;9.00;5.53;;;3.30;99.90;;;;;;4957550;28;20284;-65
2021/12/12 13:20:29;;;;;;;8.85;5.35;;;3.40;99.90;;;;;;4959579;28;20089;-64
2021/12/12 13:23:16;;;;;;;12.13;7.57;;;3.40;99.90;;;;;;4954973;28;20038;-64
2021/12/12 13:25:52;;;;;;;12.38;8.68;;;3.40;99.90;;;;;;4957827;28;20069;-65
2021/12/12 13:28:31;;;;;;;12.95;8.73;;;3.40;99.90;;;;;;4952962;28;20556;-64
2021/12/12 13:31:17;;;;;;;11.27;6.85;;;3.50;99.90;;;;;;4956591;28;20137;-65
2021/12/12 13:34:38;;;;;;;9.35;6.40;;;3.50;99.90;;;;;;4958819;28;20066;-64
2021/12/12 13:37:23;;;;;;;9.55;5.18;;;3.50;99.90;;;;;;4893078;29;20063;-64
2021/12/12 13:40:06;;;;;;;7.28;4.95;;;3.50;99.90;;;;;;4893820;29;20028;-64
2021/12/12 13:42:52;;;;;;;7.20;4.90;;;3.50;99.90;;;;;;4942647;28;21310;-64
2021/12/12 13:45:36;;;;;;;8.52;5.20;;;3.50;99.90;;;;;;4962434;28;20043;-64
2021/12/12 13:48:11;;;;;;;6.30;4.88;;;3.50;99.90;;;;;;4958381;28;20092;-64
2021/12/12 13:50:51;;;;;;;10.25;5.22;;;3.50;99.90;;;;;;4955150;28;20034;-65
2021/12/12 13:54:01;;;;;;;8.70;5.28;;;3.50;99.90;;;;;;4955888;28;20129;-64
2021/12/12 13:56:37;;;;;;;8.40;4.88;;;3.40;99.90;;;;;;4932011;28;20043;-64